sensor_id;sensor_type;location;lat;lon;timestamp;temperature;humidity
12872;DHT22;6504;53.766;9.626;2023-08-17T00:01:11;17.30;99.90
12872;DHT22;6504;53.766;9.626;2023-08-17T00:03:40;17.30;99.90
12872;DHT22;6504;53.766;9.626;2023-08-17T00:06:08;17.30;99.90
12872;DHT22;6504;53.766;9.626;2023-08-17T00:08:36;17.30;99.90
12872;DHT22;6504;53.766;9.626;2023-08-17T00:11:04;17.30;99.90
12872;DHT22;6504;53.766;9.626;2023-08-17T00:13:32;17.20;99.90
12872;DHT22;6504;53.766;9.626;2023-08-17T00:16:01;17.20;99.90
12872;DHT22;6504;53.766;9.626;2023-08-17T00:18:29;17.20;99.90
12872;DHT22;6504;53.766;9.626;2023-08-17T00:20:59;17.10;99.90
12872;DHT22;6504;53.766;9.626;2023-08-17T00:23:27;17.10;99.90
12872;DHT22;6504;53.766;9.626;2023-08-17T00:25:55;17.00;99.90
12872;DHT22;6504;53.766;9.626;2023-08-17T00:28:23;16.90;99.90
12872;DHT22;6504;53.766;9.626;2023-08-17T00:30:52;16.90;99.90
12872;DHT22;6504;53.766;9.626;2023-08-17T00:33:20;16.90;99.90
12872;DHT22;6504;53.766;9.626;2023-08-17T00:35:48;16.80;99.90
12872;DHT22;6504;53.766;9.626;2023-08-17T00:38:17;16.80;99.90
12872;DHT22;6504;53.766;9.626;2023-08-17T00:40:46;16.80;99.90
12872;DHT22;6504;53.766;9.626;2023-08-17T00:43:14;16.70;99.90
12872;DHT22;6504;53.766;9.626;2023-08-17T00:45:44;16.70;99.90
12872;DHT22;6504;53.766;9.626;2023-08-17T00:48:13;16.60;99.90
12872;DHT22;6504;53.766;9.626;2023-08-17T00:50:42;16.60;99.90
12872;DHT22;6504;53.766;9.626;2023-08-17T00:53:11;16.60;99.90
12872;DHT22;6504;53.766;9.626;2023-08-17T00:55:42;16.60;99.90
12872;DHT22;6504;53.766;9.626;2023-08-17T00:58:10;16.60;99.90
12872;DHT22;6504;53.766;9.626;2023-08-17T01:00:39;16.60;99.90
12872;DHT22;6504;53.766;9.626;2023-08-17T01:03:08;16.60;99.90
12872;DHT22;6504;53.766;9.626;2023-08-17T01:05:36;16.60;99.90
12872;DHT22;6504;53.766;9.626;2023-08-17T01:08:04;16.60;99.90
12872;DHT22;6504;53.766;9.626;2023-08-17T01:10:44;16.60;99.90
12872;DHT22;6504;53.766;9.626;2023-08-17T01:13:20;16.70;99.90
12872;DHT22;6504;53.766;9.626;2023-08-17T01:15:51;16.70;99.90
12872;DHT22;6504;53.766;9.626;2023-08-17T01:18:23;16.60;99.90
12872;DHT22;6504;53.766;9.626;2023-08-17T01:20:53;16.70;99.90
12872;DHT22;6504;53.766;9.626;2023-08-17T01:23:23;16.60;99.90
12872;DHT22;6504;53.766;9.626;2023-08-17T01:25:51;16.60;99.90
12872;DHT22;6504;53.766;9.626;2023-08-17T01:28:20;16.60;99.90
12872;DHT22;6504;53.766;9.626;2023-08-17T01:30:54;16.50;99.90
12872;DHT22;6504;53.766;9.626;2023-08-17T01:33:29;16.50;99.90
12872;DHT22;6504;53.766;9.626;2023-08-17T01:36:05;16.40;99.90
12872;DHT22;6504;53.766;9.626;2023-08-17T01:38:36;16.40;99.90
12872;DHT22;6504;53.766;9.626;2023-08-17T01:41:05;16.40;99.90
12872;DHT22;6504;53.766;9.626;2023-08-17T01:43:34;16.40;99.90
12872;DHT22;6504;53.766;9.626;2023-08-17T01:46:03;16.30;99.90
12872;DHT22;6504;53.766;9.626;2023-08-17T01:48:31;16.30;99.90
12872;DHT22;6504;53.766;9.626;2023-08-17T01:50:59;16.30;99.90
12872;DHT22;6504;53.766;9.626;2023-08-17T01:53:28;16.30;99.90
12872;DHT22;6504;53.766;9.626;2023-08-17T01:55:57;16.20;99.90
12872;DHT22;6504;53.766;9.626;2023-08-17T01:58:25;16.20;99.90
12872;DHT22;6504;53.766;9.626;2023-08-17T02:00:53;16.20;99.90
12872;DHT22;6504;53.766;9.626;2023-08-17T02:03:21;16.20;99.90
12872;DHT22;6504;53.766;9.626;2023-08-17T02:05:49;16.20;99.90
12872;DHT22;6504;53.766;9.626;2023-08-17T02:08:17;16.20;99.90
12872;DHT22;6504;53.766;9.626;2023-08-17T02:10:45;16.20;99.90
12872;DHT22;6504;53.766;9.626;2023-08-17T02:13:15;16.20;99.90
12872;DHT22;6504;53.766;9.626;2023-08-17T02:15:44;16.30;99.90
12872;DHT22;6504;53.766;9.626;2023-08-17T02:18:12;16.30;99.90
12872;DHT22;6504;53.766;9.626;2023-08-17T02:20:40;16.30;99.90
12872;DHT22;6504;53.766;9.626;2023-08-17T02:23:08;16.30;99.90
12872;DHT22;6504;53.766;9.626;2023-08-17T02:25:38;16.20;99.90
12872;DHT22;6504;53.766;9.626;2023-08-17T02:28:06;16.30;99.90
12872;DHT22;6504;53.766;9.626;2023-08-17T02:30:36;16.20;99.90
12872;DHT22;6504;53.766;9.626;2023-08-17T02:33:04;16.20;99.90
12872;DHT22;6504;53.766;9.626;2023-08-17T02:35:32;16.20;99.90
12872;DHT22;6504;53.766;9.626;2023-08-17T02:38:00;16.20;99.90
12872;DHT22;6504;53.766;9.626;2023-08-17T02:40:28;16.20;99.90
12872;DHT22;6504;53.766;9.626;2023-08-17T02:42:56;16.20;99.90
12872;DHT22;6504;53.766;9.626;2023-08-17T02:45:24;16.20;99.90
12872;DHT22;6504;53.766;9.626;2023-08-17T02:47:54;16.10;99.90
12872;DHT22;6504;53.766;9.626;2023-08-17T02:50:22;16.20;99.90
12872;DHT22;6504;53.766;9.626;2023-08-17T02:52:50;16.10;99.90
12872;DHT22;6504;53.766;9.626;2023-08-17T02:55:18;16.10;99.90
12872;DHT22;6504;53.766;9.626;2023-08-17T02:57:46;16.10;99.90
12872;DHT22;6504;53.766;9.626;2023-08-17T03:00:14;16.10;99.90
12872;DHT22;6504;53.766;9.626;2023-08-17T03:02:42;16.00;99.90
12872;DHT22;6504;53.766;9.626;2023-08-17T03:05:12;16.00;99.90
12872;DHT22;6504;53.766;9.626;2023-08-17T03:07:40;16.00;99.90
12872;DHT22;6504;53.766;9.626;2023-08-17T03:10:08;16.00;99.90
12872;DHT22;6504;53.766;9.626;2023-08-17T03:12:37;16.00;99.90
12872;DHT22;6504;53.766;9.626;2023-08-17T03:15:06;16.00;99.90
12872;DHT22;6504;53.766;9.626;2023-08-17T03:17:34;16.10;99.90
12872;DHT22;6504;53.766;9.626;2023-08-17T03:20:03;16.10;99.90
12872;DHT22;6504;53.766;9.626;2023-08-17T03:22:34;16.10;99.90
12872;DHT22;6504;53.766;9.626;2023-08-17T03:25:03;16.10;99.90
12872;DHT22;6504;53.766;9.626;2023-08-17T03:27:31;16.10;99.90
12872;DHT22;6504;53.766;9.626;2023-08-17T03:29:59;16.10;99.90
12872;DHT22;6504;53.766;9.626;2023-08-17T03:32:28;16.10;99.90
12872;DHT22;6504;53.766;9.626;2023-08-17T03:34:56;16.00;99.90
12872;DHT22;6504;53.766;9.626;2023-08-17T03:37:24;16.10;99.90
12872;DHT22;6504;53.766;9.626;2023-08-17T03:39:53;16.00;99.90
12872;DHT22;6504;53.766;9.626;2023-08-17T03:42:21;16.00;99.90
12872;DHT22;6504;53.766;9.626;2023-08-17T03:44:49;16.00;99.90
12872;DHT22;6504;53.766;9.626;2023-08-17T03:47:18;16.00;99.90
12872;DHT22;6504;53.766;9.626;2023-08-17T03:49:46;16.00;99.90
12872;DHT22;6504;53.766;9.626;2023-08-17T03:52:14;16.10;99.90
12872;DHT22;6504;53.766;9.626;2023-08-17T03:54:42;16.10;99.90
12872;DHT22;6504;53.766;9.626;2023-08-17T03:57:12;16.10;99.90
12872;DHT22;6504;53.766;9.626;2023-08-17T03:59:41;16.00;99.90
12872;DHT22;6504;53.766;9.626;2023-08-17T04:02:09;16.00;99.90
12872;DHT22;6504;53.766;9.626;2023-08-17T04:04:37;16.00;99.90
12872;DHT22;6504;53.766;9.626;2023-08-17T04:07:05;16.00;99.90
12872;DHT22;6504;53.766;9.626;2023-08-17T04:09:34;16.00;99.90
12872;DHT22;6504;53.766;9.626;2023-08-17T04:12:02;16.00;99.90
12872;DHT22;6504;53.766;9.626;2023-08-17T04:14:33;16.00;99.90
12872;DHT22;6504;53.766;9.626;2023-08-17T04:17:01;16.00;99.90
12872;DHT22;6504;53.766;9.626;2023-08-17T04:19:29;16.00;99.90
12872;DHT22;6504;53.766;9.626;2023-08-17T04:21:57;16.00;99.90
12872;DHT22;6504;53.766;9.626;2023-08-17T04:24:25;16.00;99.90
12872;DHT22;6504;53.766;9.626;2023-08-17T04:26:53;16.00;99.90
12872;DHT22;6504;53.766;9.626;2023-08-17T04:29:21;16.00;99.90
12872;DHT22;6504;53.766;9.626;2023-08-17T04:31:51;16.00;99.90
12872;DHT22;6504;53.766;9.626;2023-08-17T04:34:19;16.00;99.90
12872;DHT22;6504;53.766;9.626;2023-08-17T04:36:47;16.00;99.90
12872;DHT22;6504;53.766;9.626;2023-08-17T04:39:15;16.00;99.90
12872;DHT22;6504;53.766;9.626;2023-08-17T04:41:44;16.00;99.90
12872;DHT22;6504;53.766;9.626;2023-08-17T04:44:12;16.00;99.90
12872;DHT22;6504;53.766;9.626;2023-08-17T04:46:40;16.00;99.90
12872;DHT22;6504;53.766;9.626;2023-08-17T04:49:09;16.00;99.90
12872;DHT22;6504;53.766;9.626;2023-08-17T04:51:37;16.00;99.90
12872;DHT22;6504;53.766;9.626;2023-08-17T04:54:06;16.00;99.90
12872;DHT22;6504;53.766;9.626;2023-08-17T04:56:33;16.00;99.90
12872;DHT22;6504;53.766;9.626;2023-08-17T04:59:02;16.00;99.90
12872;DHT22;6504;53.766;9.626;2023-08-17T05:01:30;16.00;99.90
12872;DHT22;6504;53.766;9.626;2023-08-17T05:03:59;16.10;99.90
12872;DHT22;6504;53.766;9.626;2023-08-17T05:06:29;16.10;99.90
12872;DHT22;6504;53.766;9.626;2023-08-17T05:08:57;16.10;99.90
12872;DHT22;6504;53.766;9.626;2023-08-17T05:11:25;16.10;99.90
12872;DHT22;6504;53.766;9.626;2023-08-17T05:13:54;16.20;99.90
12872;DHT22;6504;53.766;9.626;2023-08-17T05:16:22;16.10;99.90
12872;DHT22;6504;53.766;9.626;2023-08-17T05:18:50;16.20;99.90
12872;DHT22;6504;53.766;9.626;2023-08-17T05:21:18;16.20;99.90
12872;DHT22;6504;53.766;9.626;2023-08-17T05:23:47;16.20;99.90
12872;DHT22;6504;53.766;9.626;2023-08-17T05:26:15;16.20;99.90
12872;DHT22;6504;53.766;9.626;2023-08-17T05:28:43;16.20;99.90
12872;DHT22;6504;53.766;9.626;2023-08-17T05:31:11;16.20;99.90
12872;DHT22;6504;53.766;9.626;2023-08-17T05:33:40;16.20;99.90
12872;DHT22;6504;53.766;9.626;2023-08-17T05:36:08;16.20;99.90
12872;DHT22;6504;53.766;9.626;2023-08-17T05:38:36;16.20;99.90
12872;DHT22;6504;53.766;9.626;2023-08-17T05:41:05;16.20;99.90
12872;DHT22;6504;53.766;9.626;2023-08-17T05:43:33;16.20;99.90
12872;DHT22;6504;53.766;9.626;2023-08-17T05:46:01;16.20;99.90
12872;DHT22;6504;53.766;9.626;2023-08-17T05:48:30;16.20;99.90
12872;DHT22;6504;53.766;9.626;2023-08-17T05:50:58;16.20;99.90
12872;DHT22;6504;53.766;9.626;2023-08-17T05:53:26;16.20;99.90
12872;DHT22;6504;53.766;9.626;2023-08-17T05:55:54;16.20;99.90
12872;DHT22;6504;53.766;9.626;2023-08-17T05:58:23;16.20;99.90
12872;DHT22;6504;53.766;9.626;2023-08-17T06:00:52;16.30;99.90
12872;DHT22;6504;53.766;9.626;2023-08-17T06:03:20;16.30;99.90
12872;DHT22;6504;53.766;9.626;2023-08-17T06:05:48;16.30;99.90
12872;DHT22;6504;53.766;9.626;2023-08-17T06:08:19;16.30;99.90
12872;DHT22;6504;53.766;9.626;2023-08-17T06:10:48;16.40;99.90
12872;DHT22;6504;53.766;9.626;2023-08-17T06:13:15;16.30;99.90
12872;DHT22;6504;53.766;9.626;2023-08-17T06:15:45;16.30;99.90
12872;DHT22;6504;53.766;9.626;2023-08-17T06:18:13;16.30;99.90
12872;DHT22;6504;53.766;9.626;2023-08-17T06:20:41;16.30;99.90
12872;DHT22;6504;53.766;9.626;2023-08-17T06:23:09;16.30;99.90
12872;DHT22;6504;53.766;9.626;2023-08-17T06:25:37;16.30;99.90
12872;DHT22;6504;53.766;9.626;2023-08-17T06:28:06;16.30;99.90
12872;DHT22;6504;53.766;9.626;2023-08-17T06:30:34;16.30;99.90
12872;DHT22;6504;53.766;9.626;2023-08-17T06:33:04;16.20;99.90
12872;DHT22;6504;53.766;9.626;2023-08-17T06:35:32;16.20;99.90
12872;DHT22;6504;53.766;9.626;2023-08-17T06:38:00;16.20;99.90
12872;DHT22;6504;53.766;9.626;2023-08-17T06:40:28;16.10;99.90
12872;DHT22;6504;53.766;9.626;2023-08-17T06:42:56;16.10;99.90
12872;DHT22;6504;53.766;9.626;2023-08-17T06:45:24;16.10;99.90
12872;DHT22;6504;53.766;9.626;2023-08-17T06:47:53;16.10;99.90
12872;DHT22;6504;53.766;9.626;2023-08-17T06:50:22;16.10;99.90
12872;DHT22;6504;53.766;9.626;2023-08-17T06:52:50;16.00;99.90
12872;DHT22;6504;53.766;9.626;2023-08-17T06:55:18;16.10;99.90
12872;DHT22;6504;53.766;9.626;2023-08-17T06:57:47;16.10;99.90
12872;DHT22;6504;53.766;9.626;2023-08-17T07:00:16;16.00;99.90
12872;DHT22;6504;53.766;9.626;2023-08-17T07:02:47;16.00;99.90
12872;DHT22;6504;53.766;9.626;2023-08-17T07:05:23;16.10;99.90
12872;DHT22;6504;53.766;9.626;2023-08-17T07:07:51;16.10;99.90
12872;DHT22;6504;53.766;9.626;2023-08-17T07:10:21;16.10;99.90
12872;DHT22;6504;53.766;9.626;2023-08-17T07:12:49;16.10;99.90
12872;DHT22;6504;53.766;9.626;2023-08-17T07:15:17;16.10;99.90
12872;DHT22;6504;53.766;9.626;2023-08-17T07:17:45;16.10;99.90
12872;DHT22;6504;53.766;9.626;2023-08-17T07:20:13;16.10;99.90
12872;DHT22;6504;53.766;9.626;2023-08-17T07:22:44;16.10;99.90
12872;DHT22;6504;53.766;9.626;2023-08-17T07:25:12;16.10;99.90
12872;DHT22;6504;53.766;9.626;2023-08-17T07:27:41;16.10;99.90
12872;DHT22;6504;53.766;9.626;2023-08-17T07:30:10;16.10;99.90
12872;DHT22;6504;53.766;9.626;2023-08-17T07:32:38;16.20;99.90
12872;DHT22;6504;53.766;9.626;2023-08-17T07:35:07;16.20;99.90
12872;DHT22;6504;53.766;9.626;2023-08-17T07:37:36;16.10;99.90
12872;DHT22;6504;53.766;9.626;2023-08-17T07:40:07;16.20;99.90
12872;DHT22;6504;53.766;9.626;2023-08-17T07:42:36;16.20;99.90
12872;DHT22;6504;53.766;9.626;2023-08-17T07:45:05;16.20;99.90
12872;DHT22;6504;53.766;9.626;2023-08-17T07:47:35;16.20;99.90
12872;DHT22;6504;53.766;9.626;2023-08-17T07:50:04;16.30;99.90
12872;DHT22;6504;53.766;9.626;2023-08-17T07:52:32;16.20;99.90
12872;DHT22;6504;53.766;9.626;2023-08-17T07:55:00;16.20;99.90
12872;DHT22;6504;53.766;9.626;2023-08-17T07:57:30;16.20;99.90
12872;DHT22;6504;53.766;9.626;2023-08-17T07:59:58;16.30;99.90
12872;DHT22;6504;53.766;9.626;2023-08-17T08:02:26;16.30;99.90
12872;DHT22;6504;53.766;9.626;2023-08-17T08:04:54;16.30;99.90
12872;DHT22;6504;53.766;9.626;2023-08-17T08:07:22;16.40;99.90
12872;DHT22;6504;53.766;9.626;2023-08-17T08:09:51;16.40;99.90
12872;DHT22;6504;53.766;9.626;2023-08-17T08:12:19;16.40;99.90
12872;DHT22;6504;53.766;9.626;2023-08-17T08:14:48;16.40;99.90
12872;DHT22;6504;53.766;9.626;2023-08-17T08:17:17;16.40;99.90
12872;DHT22;6504;53.766;9.626;2023-08-17T08:19:46;16.40;99.90
12872;DHT22;6504;53.766;9.626;2023-08-17T08:22:14;16.40;99.90
12872;DHT22;6504;53.766;9.626;2023-08-17T08:24:43;16.50;99.90
12872;DHT22;6504;53.766;9.626;2023-08-17T08:27:11;16.40;99.90
12872;DHT22;6504;53.766;9.626;2023-08-17T08:29:39;16.40;99.90
12872;DHT22;6504;53.766;9.626;2023-08-17T08:32:09;16.40;99.90
12872;DHT22;6504;53.766;9.626;2023-08-17T08:34:37;16.50;99.90
12872;DHT22;6504;53.766;9.626;2023-08-17T08:37:05;16.40;99.90
12872;DHT22;6504;53.766;9.626;2023-08-17T08:39:48;16.50;99.90
12872;DHT22;6504;53.766;9.626;2023-08-17T08:42:16;16.50;99.90
12872;DHT22;6504;53.766;9.626;2023-08-17T08:44:45;16.50;99.90
12872;DHT22;6504;53.766;9.626;2023-08-17T08:47:16;16.50;99.90
12872;DHT22;6504;53.766;9.626;2023-08-17T08:49:52;16.50;99.90
12872;DHT22;6504;53.766;9.626;2023-08-17T08:52:33;16.60;99.90
12872;DHT22;6504;53.766;9.626;2023-08-17T08:55:09;16.60;99.90
12872;DHT22;6504;53.766;9.626;2023-08-17T08:57:39;16.50;99.90
12872;DHT22;6504;53.766;9.626;2023-08-17T09:00:09;16.60;99.90
12872;DHT22;6504;53.766;9.626;2023-08-17T09:02:39;16.50;99.90
12872;DHT22;6504;53.766;9.626;2023-08-17T09:05:09;16.50;99.90
12872;DHT22;6504;53.766;9.626;2023-08-17T09:07:38;16.60;99.90
12872;DHT22;6504;53.766;9.626;2023-08-17T09:10:07;16.60;99.90
12872;DHT22;6504;53.766;9.626;2023-08-17T09:12:36;16.50;99.90
12872;DHT22;6504;53.766;9.626;2023-08-17T09:15:07;16.60;99.90
12872;DHT22;6504;53.766;9.626;2023-08-17T09:17:37;16.60;99.90
12872;DHT22;6504;53.766;9.626;2023-08-17T09:20:07;16.60;99.90
12872;DHT22;6504;53.766;9.626;2023-08-17T09:22:40;16.60;99.90
12872;DHT22;6504;53.766;9.626;2023-08-17T09:25:10;16.60;99.90
12872;DHT22;6504;53.766;9.626;2023-08-17T09:27:39;16.60;99.90
12872;DHT22;6504;53.766;9.626;2023-08-17T09:30:10;16.70;99.90
12872;DHT22;6504;53.766;9.626;2023-08-17T09:32:41;16.70;99.90
12872;DHT22;6504;53.766;9.626;2023-08-17T09:35:09;16.70;99.90
12872;DHT22;6504;53.766;9.626;2023-08-17T09:37:37;16.70;99.90
12872;DHT22;6504;53.766;9.626;2023-08-17T09:40:06;16.70;99.90
12872;DHT22;6504;53.766;9.626;2023-08-17T09:42:35;16.80;99.90
12872;DHT22;6504;53.766;9.626;2023-08-17T09:45:04;16.80;99.90
12872;DHT22;6504;53.766;9.626;2023-08-17T09:47:33;16.80;99.90
12872;DHT22;6504;53.766;9.626;2023-08-17T09:50:06;16.80;99.90
12872;DHT22;6504;53.766;9.626;2023-08-17T09:52:38;16.80;99.90
12872;DHT22;6504;53.766;9.626;2023-08-17T09:55:07;16.80;99.90
12872;DHT22;6504;53.766;9.626;2023-08-17T09:57:37;16.80;99.90
12872;DHT22;6504;53.766;9.626;2023-08-17T10:00:07;16.80;99.90
12872;DHT22;6504;53.766;9.626;2023-08-17T10:02:36;16.80;99.90
12872;DHT22;6504;53.766;9.626;2023-08-17T10:05:09;16.80;99.90
12872;DHT22;6504;53.766;9.626;2023-08-17T10:07:43;16.90;99.90
12872;DHT22;6504;53.766;9.626;2023-08-17T10:10:14;16.90;99.90
12872;DHT22;6504;53.766;9.626;2023-08-17T10:12:53;16.90;99.90
12872;DHT22;6504;53.766;9.626;2023-08-17T10:15:26;16.90;99.90
12872;DHT22;6504;53.766;9.626;2023-08-17T10:18:01;16.90;99.90
12872;DHT22;6504;53.766;9.626;2023-08-17T10:20:34;17.00;99.90
12872;DHT22;6504;53.766;9.626;2023-08-17T10:23:10;17.00;99.90
12872;DHT22;6504;53.766;9.626;2023-08-17T10:25:38;17.00;99.90
12872;DHT22;6504;53.766;9.626;2023-08-17T10:28:08;17.00;99.90
12872;DHT22;6504;53.766;9.626;2023-08-17T10:30:37;17.10;99.90
12872;DHT22;6504;53.766;9.626;2023-08-17T10:33:05;17.10;99.90
12872;DHT22;6504;53.766;9.626;2023-08-17T10:35:37;17.10;99.90
12872;DHT22;6504;53.766;9.626;2023-08-17T10:38:06;17.10;99.90
12872;DHT22;6504;53.766;9.626;2023-08-17T10:40:39;17.20;99.90
12872;DHT22;6504;53.766;9.626;2023-08-17T10:43:07;17.20;99.90
12872;DHT22;6504;53.766;9.626;2023-08-17T10:45:35;17.20;99.90
12872;DHT22;6504;53.766;9.626;2023-08-17T10:48:25;17.30;99.90
12872;DHT22;6504;53.766;9.626;2023-08-17T10:51:05;17.30;99.90
12872;DHT22;6504;53.766;9.626;2023-08-17T10:53:36;17.40;99.90
12872;DHT22;6504;53.766;9.626;2023-08-17T10:56:13;17.40;99.90
12872;DHT22;6504;53.766;9.626;2023-08-17T10:58:45;17.40;99.90
12872;DHT22;6504;53.766;9.626;2023-08-17T11:01:12;17.50;99.90
12872;DHT22;6504;53.766;9.626;2023-08-17T11:04:08;17.50;99.90
12872;DHT22;6504;53.766;9.626;2023-08-17T11:06:39;17.60;99.90
12872;DHT22;6504;53.766;9.626;2023-08-17T11:09:07;17.60;99.90
12872;DHT22;6504;53.766;9.626;2023-08-17T11:11:36;17.60;99.90
12872;DHT22;6504;53.766;9.626;2023-08-17T11:14:04;17.60;99.90
12872;DHT22;6504;53.766;9.626;2023-08-17T11:16:32;17.60;99.90
12872;DHT22;6504;53.766;9.626;2023-08-17T11:19:00;17.70;99.90
12872;DHT22;6504;53.766;9.626;2023-08-17T11:21:28;17.70;99.90
12872;DHT22;6504;53.766;9.626;2023-08-17T11:23:58;17.70;99.90
12872;DHT22;6504;53.766;9.626;2023-08-17T11:26:27;17.70;99.90
12872;DHT22;6504;53.766;9.626;2023-08-17T11:29:02;17.70;99.90
12872;DHT22;6504;53.766;9.626;2023-08-17T11:31:32;17.70;99.90
12872;DHT22;6504;53.766;9.626;2023-08-17T11:34:01;17.70;99.90
12872;DHT22;6504;53.766;9.626;2023-08-17T11:36:29;17.70;99.90
12872;DHT22;6504;53.766;9.626;2023-08-17T11:38:58;17.70;99.90
12872;DHT22;6504;53.766;9.626;2023-08-17T11:41:26;17.70;99.90
12872;DHT22;6504;53.766;9.626;2023-08-17T11:43:55;17.70;99.90
12872;DHT22;6504;53.766;9.626;2023-08-17T11:46:23;17.70;99.90
12872;DHT22;6504;53.766;9.626;2023-08-17T11:48:58;17.70;99.90
12872;DHT22;6504;53.766;9.626;2023-08-17T11:51:29;17.70;99.90
12872;DHT22;6504;53.766;9.626;2023-08-17T11:54:00;17.70;99.90
12872;DHT22;6504;53.766;9.626;2023-08-17T11:56:29;17.70;99.90
12872;DHT22;6504;53.766;9.626;2023-08-17T11:58:58;17.60;99.90
12872;DHT22;6504;53.766;9.626;2023-08-17T12:01:26;17.60;99.90
12872;DHT22;6504;53.766;9.626;2023-08-17T12:03:54;17.60;99.90
12872;DHT22;6504;53.766;9.626;2023-08-17T12:06:22;17.60;99.90
12872;DHT22;6504;53.766;9.626;2023-08-17T12:08:50;17.60;99.90
12872;DHT22;6504;53.766;9.626;2023-08-17T12:11:23;17.60;99.90
12872;DHT22;6504;53.766;9.626;2023-08-17T12:13:52;17.60;99.90
12872;DHT22;6504;53.766;9.626;2023-08-17T12:16:21;17.60;99.90
12872;DHT22;6504;53.766;9.626;2023-08-17T12:18:51;17.60;99.90
12872;DHT22;6504;53.766;9.626;2023-08-17T12:21:20;17.60;99.90
12872;DHT22;6504;53.766;9.626;2023-08-17T12:23:49;17.60;99.90
12872;DHT22;6504;53.766;9.626;2023-08-17T12:26:21;17.60;99.90
12872;DHT22;6504;53.766;9.626;2023-08-17T12:28:49;17.60;99.90
12872;DHT22;6504;53.766;9.626;2023-08-17T12:31:21;17.60;99.90
12872;DHT22;6504;53.766;9.626;2023-08-17T12:33:51;17.60;99.90
12872;DHT22;6504;53.766;9.626;2023-08-17T12:36:19;17.60;99.90
12872;DHT22;6504;53.766;9.626;2023-08-17T12:38:48;17.60;99.90
12872;DHT22;6504;53.766;9.626;2023-08-17T12:41:16;17.60;99.90
12872;DHT22;6504;53.766;9.626;2023-08-17T12:43:46;17.70;99.90
12872;DHT22;6504;53.766;9.626;2023-08-17T12:46:14;17.70;99.90
12872;DHT22;6504;53.766;9.626;2023-08-17T12:48:42;17.70;99.90
12872;DHT22;6504;53.766;9.626;2023-08-17T12:51:10;17.70;99.90
12872;DHT22;6504;53.766;9.626;2023-08-17T12:53:38;17.70;99.90
12872;DHT22;6504;53.766;9.626;2023-08-17T12:56:06;17.70;99.90
12872;DHT22;6504;53.766;9.626;2023-08-17T12:58:35;17.70;99.90
12872;DHT22;6504;53.766;9.626;2023-08-17T13:01:04;17.70;99.90
12872;DHT22;6504;53.766;9.626;2023-08-17T13:03:32;17.70;99.90
12872;DHT22;6504;53.766;9.626;2023-08-17T13:06:00;17.70;99.90
12872;DHT22;6504;53.766;9.626;2023-08-17T13:08:29;17.80;99.90
12872;DHT22;6504;53.766;9.626;2023-08-17T13:10:57;17.70;99.90
12872;DHT22;6504;53.766;9.626;2023-08-17T13:13:25;17.80;99.90
12872;DHT22;6504;53.766;9.626;2023-08-17T13:15:53;17.80;99.90
12872;DHT22;6504;53.766;9.626;2023-08-17T13:18:23;17.80;99.90
12872;DHT22;6504;53.766;9.626;2023-08-17T13:20:51;17.80;99.90
12872;DHT22;6504;53.766;9.626;2023-08-17T13:23:19;17.80;99.90
12872;DHT22;6504;53.766;9.626;2023-08-17T13:25:47;17.80;99.90
12872;DHT22;6504;53.766;9.626;2023-08-17T13:28:15;17.80;99.90
12872;DHT22;6504;53.766;9.626;2023-08-17T13:30:43;17.80;99.90
12872;DHT22;6504;53.766;9.626;2023-08-17T13:33:11;17.80;99.90
12872;DHT22;6504;53.766;9.626;2023-08-17T13:35:40;17.80;99.90
12872;DHT22;6504;53.766;9.626;2023-08-17T13:38:08;17.80;99.90
12872;DHT22;6504;53.766;9.626;2023-08-17T13:40:36;17.80;99.90
12872;DHT22;6504;53.766;9.626;2023-08-17T13:43:05;17.80;99.90
12872;DHT22;6504;53.766;9.626;2023-08-17T13:45:39;17.80;99.90
12872;DHT22;6504;53.766;9.626;2023-08-17T13:48:07;17.80;99.90
12872;DHT22;6504;53.766;9.626;2023-08-17T13:50:39;17.70;99.90
12872;DHT22;6504;53.766;9.626;2023-08-17T13:53:07;17.60;99.90
12872;DHT22;6504;53.766;9.626;2023-08-17T13:55:35;17.60;99.90
12872;DHT22;6504;53.766;9.626;2023-08-17T13:58:04;17.50;99.90
12872;DHT22;6504;53.766;9.626;2023-08-17T14:00:32;17.50;99.90
12872;DHT22;6504;53.766;9.626;2023-08-17T14:03:00;17.50;99.90
12872;DHT22;6504;53.766;9.626;2023-08-17T14:05:29;17.50;99.90
12872;DHT22;6504;53.766;9.626;2023-08-17T14:07:58;17.50;99.90
12872;DHT22;6504;53.766;9.626;2023-08-17T14:10:26;17.50;99.90
12872;DHT22;6504;53.766;9.626;2023-08-17T14:13:05;17.50;99.90
12872;DHT22;6504;53.766;9.626;2023-08-17T14:15:34;17.50;99.90
12872;DHT22;6504;53.766;9.626;2023-08-17T14:18:02;17.60;99.90
12872;DHT22;6504;53.766;9.626;2023-08-17T14:20:31;17.60;99.90
12872;DHT22;6504;53.766;9.626;2023-08-17T14:23:00;17.60;99.90
12872;DHT22;6504;53.766;9.626;2023-08-17T14:25:28;17.60;99.90
12872;DHT22;6504;53.766;9.626;2023-08-17T14:27:57;17.60;99.90
12872;DHT22;6504;53.766;9.626;2023-08-17T14:30:25;17.60;99.90
12872;DHT22;6504;53.766;9.626;2023-08-17T14:32:54;17.60;99.90
12872;DHT22;6504;53.766;9.626;2023-08-17T14:35:26;17.60;99.90
12872;DHT22;6504;53.766;9.626;2023-08-17T14:37:55;17.50;99.90
12872;DHT22;6504;53.766;9.626;2023-08-17T14:40:26;17.50;99.90
12872;DHT22;6504;53.766;9.626;2023-08-17T14:42:54;17.40;99.90
12872;DHT22;6504;53.766;9.626;2023-08-17T14:45:24;17.40;99.90
12872;DHT22;6504;53.766;9.626;2023-08-17T14:47:52;17.40;99.90
12872;DHT22;6504;53.766;9.626;2023-08-17T14:50:20;17.50;99.90
12872;DHT22;6504;53.766;9.626;2023-08-17T14:52:55;17.40;99.90
12872;DHT22;6504;53.766;9.626;2023-08-17T14:55:23;17.40;99.90
12872;DHT22;6504;53.766;9.626;2023-08-17T14:57:52;17.40;99.90
12872;DHT22;6504;53.766;9.626;2023-08-17T15:00:20;17.30;99.90
12872;DHT22;6504;53.766;9.626;2023-08-17T15:02:48;17.30;99.90
12872;DHT22;6504;53.766;9.626;2023-08-17T15:05:17;17.30;99.90
12872;DHT22;6504;53.766;9.626;2023-08-17T15:07:45;17.30;99.90
12872;DHT22;6504;53.766;9.626;2023-08-17T15:10:13;17.30;99.90
12872;DHT22;6504;53.766;9.626;2023-08-17T15:12:42;17.20;99.90
12872;DHT22;6504;53.766;9.626;2023-08-17T15:15:12;17.20;99.90
12872;DHT22;6504;53.766;9.626;2023-08-17T15:17:45;17.10;99.90
12872;DHT22;6504;53.766;9.626;2023-08-17T15:20:13;17.10;99.90
12872;DHT22;6504;53.766;9.626;2023-08-17T15:22:41;17.00;99.90
12872;DHT22;6504;53.766;9.626;2023-08-17T15:25:09;16.90;99.90
12872;DHT22;6504;53.766;9.626;2023-08-17T15:27:37;16.90;99.90
12872;DHT22;6504;53.766;9.626;2023-08-17T15:30:06;16.80;99.90
12872;DHT22;6504;53.766;9.626;2023-08-17T15:32:36;16.80;99.90
12872;DHT22;6504;53.766;9.626;2023-08-17T15:35:05;16.80;99.90
12872;DHT22;6504;53.766;9.626;2023-08-17T15:37:33;16.70;99.90
12872;DHT22;6504;53.766;9.626;2023-08-17T15:40:04;16.70;99.90
12872;DHT22;6504;53.766;9.626;2023-08-17T15:42:33;16.70;99.90
12872;DHT22;6504;53.766;9.626;2023-08-17T15:45:01;16.70;99.90
12872;DHT22;6504;53.766;9.626;2023-08-17T15:47:29;16.60;99.90
12872;DHT22;6504;53.766;9.626;2023-08-17T15:50:00;16.60;99.90
12872;DHT22;6504;53.766;9.626;2023-08-17T15:52:28;16.60;99.90
12872;DHT22;6504;53.766;9.626;2023-08-17T15:54:56;16.50;99.90
12872;DHT22;6504;53.766;9.626;2023-08-17T15:57:24;16.50;99.90